sensor_id;sensor_type;location;lat;lon;timestamp;temperature;humidity
14755;DHT22;7469;50.906;6.952;2022-10-15T00:00:50;14.90;99.90
14755;DHT22;7469;50.906;6.952;2022-10-15T00:03:18;14.90;99.90
14755;DHT22;7469;50.906;6.952;2022-10-15T00:05:46;14.90;99.90
14755;DHT22;7469;50.906;6.952;2022-10-15T00:08:14;14.90;99.90
14755;DHT22;7469;50.906;6.952;2022-10-15T00:10:43;14.90;99.90
14755;DHT22;7469;50.906;6.952;2022-10-15T00:13:11;14.90;99.90
14755;DHT22;7469;50.906;6.952;2022-10-15T00:15:41;14.80;99.90
14755;DHT22;7469;50.906;6.952;2022-10-15T00:18:09;14.80;99.90
14755;DHT22;7469;50.906;6.952;2022-10-15T00:20:40;14.80;99.90
14755;DHT22;7469;50.906;6.952;2022-10-15T00:23:08;14.80;99.90
14755;DHT22;7469;50.906;6.952;2022-10-15T00:25:36;14.80;99.90
14755;DHT22;7469;50.906;6.952;2022-10-15T00:28:05;14.80;99.90
14755;DHT22;7469;50.906;6.952;2022-10-15T00:30:33;14.80;99.90
14755;DHT22;7469;50.906;6.952;2022-10-15T00:33:01;14.80;99.90
14755;DHT22;7469;50.906;6.952;2022-10-15T00:35:29;14.80;99.90
14755;DHT22;7469;50.906;6.952;2022-10-15T00:37:56;14.80;99.90
14755;DHT22;7469;50.906;6.952;2022-10-15T00:40:24;14.80;99.90
14755;DHT22;7469;50.906;6.952;2022-10-15T00:42:52;14.80;99.90
14755;DHT22;7469;50.906;6.952;2022-10-15T00:45:22;14.80;99.90
14755;DHT22;7469;50.906;6.952;2022-10-15T00:47:50;14.80;99.90
14755;DHT22;7469;50.906;6.952;2022-10-15T00:50:21;14.70;99.90
14755;DHT22;7469;50.906;6.952;2022-10-15T00:52:58;14.80;99.90
14755;DHT22;7469;50.906;6.952;2022-10-15T00:55:29;14.70;99.90
14755;DHT22;7469;50.906;6.952;2022-10-15T00:58:00;14.70;99.90
14755;DHT22;7469;50.906;6.952;2022-10-15T01:00:31;14.70;99.90
14755;DHT22;7469;50.906;6.952;2022-10-15T01:03:00;14.70;99.90
14755;DHT22;7469;50.906;6.952;2022-10-15T01:05:28;14.60;99.90
14755;DHT22;7469;50.906;6.952;2022-10-15T01:07:57;14.60;99.90
14755;DHT22;7469;50.906;6.952;2022-10-15T01:10:28;14.50;99.90
14755;DHT22;7469;50.906;6.952;2022-10-15T01:13:05;14.50;99.90
14755;DHT22;7469;50.906;6.952;2022-10-15T01:15:44;14.50;99.90
14755;DHT22;7469;50.906;6.952;2022-10-15T01:18:15;14.50;99.90
14755;DHT22;7469;50.906;6.952;2022-10-15T01:21:10;14.40;99.90
14755;DHT22;7469;50.906;6.952;2022-10-15T01:24:02;14.40;99.90
14755;DHT22;7469;50.906;6.952;2022-10-15T01:27:04;14.40;99.90
14755;DHT22;7469;50.906;6.952;2022-10-15T01:29:57;14.40;99.90
14755;DHT22;7469;50.906;6.952;2022-10-15T01:32:35;14.30;99.90
14755;DHT22;7469;50.906;6.952;2022-10-15T01:35:12;14.30;99.90
14755;DHT22;7469;50.906;6.952;2022-10-15T01:37:48;14.30;99.90
14755;DHT22;7469;50.906;6.952;2022-10-15T01:40:21;14.30;99.90
14755;DHT22;7469;50.906;6.952;2022-10-15T01:42:53;14.30;99.90
14755;DHT22;7469;50.906;6.952;2022-10-15T01:45:28;14.20;99.90
14755;DHT22;7469;50.906;6.952;2022-10-15T01:48:02;14.20;99.90
14755;DHT22;7469;50.906;6.952;2022-10-15T01:50:34;14.20;99.90
14755;DHT22;7469;50.906;6.952;2022-10-15T01:53:05;14.20;99.90
14755;DHT22;7469;50.906;6.952;2022-10-15T01:55:35;14.10;99.90
14755;DHT22;7469;50.906;6.952;2022-10-15T02:00:52;14.10;99.90
14755;DHT22;7469;50.906;6.952;2022-10-15T02:03:22;14.10;99.90
14755;DHT22;7469;50.906;6.952;2022-10-15T02:05:55;14.10;99.90
14755;DHT22;7469;50.906;6.952;2022-10-15T02:08:33;14.00;99.90
14755;DHT22;7469;50.906;6.952;2022-10-15T02:11:05;14.00;99.90
14755;DHT22;7469;50.906;6.952;2022-10-15T02:13:43;14.00;99.90
14755;DHT22;7469;50.906;6.952;2022-10-15T02:16:21;14.00;99.90
14755;DHT22;7469;50.906;6.952;2022-10-15T02:18:56;14.00;99.90
14755;DHT22;7469;50.906;6.952;2022-10-15T02:21:30;14.00;99.90
14755;DHT22;7469;50.906;6.952;2022-10-15T02:24:05;14.00;99.90
14755;DHT22;7469;50.906;6.952;2022-10-15T02:26:35;14.00;99.90
14755;DHT22;7469;50.906;6.952;2022-10-15T02:29:07;14.00;99.90
14755;DHT22;7469;50.906;6.952;2022-10-15T02:31:39;14.00;99.90
14755;DHT22;7469;50.906;6.952;2022-10-15T02:34:13;14.00;99.90
14755;DHT22;7469;50.906;6.952;2022-10-15T02:36:42;14.00;99.90
14755;DHT22;7469;50.906;6.952;2022-10-15T02:39:17;14.00;99.90
14755;DHT22;7469;50.906;6.952;2022-10-15T02:41:47;14.00;99.90
14755;DHT22;7469;50.906;6.952;2022-10-15T02:44:15;14.00;99.90
14755;DHT22;7469;50.906;6.952;2022-10-15T02:46:43;14.10;99.90
14755;DHT22;7469;50.906;6.952;2022-10-15T02:49:13;14.00;99.90
14755;DHT22;7469;50.906;6.952;2022-10-15T02:51:41;14.10;99.90
14755;DHT22;7469;50.906;6.952;2022-10-15T02:54:09;14.10;99.90
14755;DHT22;7469;50.906;6.952;2022-10-15T02:56:37;14.00;99.90
14755;DHT22;7469;50.906;6.952;2022-10-15T02:59:05;14.10;99.90
14755;DHT22;7469;50.906;6.952;2022-10-15T03:01:33;14.10;99.90
14755;DHT22;7469;50.906;6.952;2022-10-15T03:04:01;14.10;99.90
14755;DHT22;7469;50.906;6.952;2022-10-15T03:06:31;14.10;99.90
14755;DHT22;7469;50.906;6.952;2022-10-15T03:08:59;14.10;99.90
14755;DHT22;7469;50.906;6.952;2022-10-15T03:11:27;14.10;99.90
14755;DHT22;7469;50.906;6.952;2022-10-15T03:13:55;14.10;99.90
14755;DHT22;7469;50.906;6.952;2022-10-15T03:16:24;14.10;99.90
14755;DHT22;7469;50.906;6.952;2022-10-15T03:18:52;14.10;99.90
14755;DHT22;7469;50.906;6.952;2022-10-15T03:21:19;14.10;99.90
14755;DHT22;7469;50.906;6.952;2022-10-15T03:23:49;14.10;99.90
14755;DHT22;7469;50.906;6.952;2022-10-15T03:26:17;14.10;99.90
14755;DHT22;7469;50.906;6.952;2022-10-15T03:28:44;14.10;99.90
14755;DHT22;7469;50.906;6.952;2022-10-15T03:31:13;14.10;99.90
14755;DHT22;7469;50.906;6.952;2022-10-15T03:33:41;14.10;99.90
14755;DHT22;7469;50.906;6.952;2022-10-15T03:36:09;14.10;99.90
14755;DHT22;7469;50.906;6.952;2022-10-15T03:38:37;14.10;99.90
14755;DHT22;7469;50.906;6.952;2022-10-15T03:41:06;14.10;99.90
14755;DHT22;7469;50.906;6.952;2022-10-15T03:43:34;14.10;99.90
14755;DHT22;7469;50.906;6.952;2022-10-15T03:46:07;14.10;99.90
14755;DHT22;7469;50.906;6.952;2022-10-15T03:48:35;14.10;99.90
14755;DHT22;7469;50.906;6.952;2022-10-15T03:51:04;14.10;99.90
14755;DHT22;7469;50.906;6.952;2022-10-15T03:53:32;14.10;99.90
14755;DHT22;7469;50.906;6.952;2022-10-15T03:56:02;14.10;99.90
14755;DHT22;7469;50.906;6.952;2022-10-15T03:58:32;14.10;99.90
14755;DHT22;7469;50.906;6.952;2022-10-15T04:01:00;14.20;99.90
14755;DHT22;7469;50.906;6.952;2022-10-15T04:03:27;14.10;99.90
14755;DHT22;7469;50.906;6.952;2022-10-15T04:05:55;14.10;99.90
14755;DHT22;7469;50.906;6.952;2022-10-15T04:08:27;14.10;99.90
14755;DHT22;7469;50.906;6.952;2022-10-15T04:10:54;14.20;99.90
14755;DHT22;7469;50.906;6.952;2022-10-15T04:13:22;14.20;99.90
14755;DHT22;7469;50.906;6.952;2022-10-15T04:15:52;14.20;99.90
14755;DHT22;7469;50.906;6.952;2022-10-15T04:18:20;14.20;99.90
14755;DHT22;7469;50.906;6.952;2022-10-15T04:20:48;14.20;99.90
14755;DHT22;7469;50.906;6.952;2022-10-15T04:23:16;14.20;99.90
14755;DHT22;7469;50.906;6.952;2022-10-15T04:25:44;14.20;99.90
14755;DHT22;7469;50.906;6.952;2022-10-15T04:28:12;14.20;99.90
14755;DHT22;7469;50.906;6.952;2022-10-15T04:30:40;14.20;99.90
14755;DHT22;7469;50.906;6.952;2022-10-15T04:33:09;14.20;99.90
14755;DHT22;7469;50.906;6.952;2022-10-15T04:35:37;14.20;99.90
14755;DHT22;7469;50.906;6.952;2022-10-15T04:38:05;14.10;99.90
14755;DHT22;7469;50.906;6.952;2022-10-15T04:40:33;14.10;99.90
14755;DHT22;7469;50.906;6.952;2022-10-15T04:43:01;14.10;99.90
14755;DHT22;7469;50.906;6.952;2022-10-15T04:45:29;14.10;99.90
14755;DHT22;7469;50.906;6.952;2022-10-15T04:47:57;14.10;99.90
14755;DHT22;7469;50.906;6.952;2022-10-15T04:50:26;14.10;99.90
14755;DHT22;7469;50.906;6.952;2022-10-15T04:52:54;14.10;99.90
14755;DHT22;7469;50.906;6.952;2022-10-15T04:55:22;14.10;99.90
14755;DHT22;7469;50.906;6.952;2022-10-15T04:57:50;14.10;99.90
14755;DHT22;7469;50.906;6.952;2022-10-15T05:00:18;14.10;99.90
14755;DHT22;7469;50.906;6.952;2022-10-15T05:02:46;14.10;99.90
14755;DHT22;7469;50.906;6.952;2022-10-15T05:05:14;14.10;99.90
14755;DHT22;7469;50.906;6.952;2022-10-15T05:07:43;14.10;99.90
14755;DHT22;7469;50.906;6.952;2022-10-15T05:10:11;14.10;99.90
14755;DHT22;7469;50.906;6.952;2022-10-15T05:12:39;14.10;99.90
14755;DHT22;7469;50.906;6.952;2022-10-15T05:15:08;14.10;99.90
14755;DHT22;7469;50.906;6.952;2022-10-15T05:17:36;14.10;99.90
14755;DHT22;7469;50.906;6.952;2022-10-15T05:20:05;14.10;99.90
14755;DHT22;7469;50.906;6.952;2022-10-15T05:22:33;14.10;99.90
14755;DHT22;7469;50.906;6.952;2022-10-15T05:25:02;14.10;99.90
14755;DHT22;7469;50.906;6.952;2022-10-15T05:27:30;14.10;99.90
14755;DHT22;7469;50.906;6.952;2022-10-15T05:29:58;14.10;99.90
14755;DHT22;7469;50.906;6.952;2022-10-15T05:32:26;14.10;99.90
14755;DHT22;7469;50.906;6.952;2022-10-15T05:34:54;14.10;99.90
14755;DHT22;7469;50.906;6.952;2022-10-15T05:37:22;14.10;99.90
14755;DHT22;7469;50.906;6.952;2022-10-15T05:39:51;14.10;99.90
14755;DHT22;7469;50.906;6.952;2022-10-15T05:42:20;14.10;99.90
14755;DHT22;7469;50.906;6.952;2022-10-15T05:44:48;14.10;99.90
14755;DHT22;7469;50.906;6.952;2022-10-15T05:47:16;14.10;99.90
14755;DHT22;7469;50.906;6.952;2022-10-15T05:49:44;14.10;99.90
14755;DHT22;7469;50.906;6.952;2022-10-15T05:52:12;14.10;99.90
14755;DHT22;7469;50.906;6.952;2022-10-15T05:54:40;14.10;99.90
14755;DHT22;7469;50.906;6.952;2022-10-15T05:57:08;14.10;99.90
14755;DHT22;7469;50.906;6.952;2022-10-15T05:59:37;14.10;99.90
14755;DHT22;7469;50.906;6.952;2022-10-15T06:02:05;14.10;99.90
14755;DHT22;7469;50.906;6.952;2022-10-15T06:04:33;14.10;99.90
14755;DHT22;7469;50.906;6.952;2022-10-15T06:07:02;14.10;99.90
14755;DHT22;7469;50.906;6.952;2022-10-15T06:09:29;14.10;99.90
14755;DHT22;7469;50.906;6.952;2022-10-15T06:11:57;14.00;99.90
14755;DHT22;7469;50.906;6.952;2022-10-15T06:14:25;14.00;99.90
14755;DHT22;7469;50.906;6.952;2022-10-15T06:16:54;14.00;99.90
14755;DHT22;7469;50.906;6.952;2022-10-15T06:19:22;13.90;99.90
14755;DHT22;7469;50.906;6.952;2022-10-15T06:21:50;13.90;99.90
14755;DHT22;7469;50.906;6.952;2022-10-15T06:24:18;13.80;99.90
14755;DHT22;7469;50.906;6.952;2022-10-15T06:26:46;13.80;99.90
14755;DHT22;7469;50.906;6.952;2022-10-15T06:29:14;13.80;99.90
14755;DHT22;7469;50.906;6.952;2022-10-15T06:31:42;13.80;99.90
14755;DHT22;7469;50.906;6.952;2022-10-15T06:34:11;13.80;99.90
14755;DHT22;7469;50.906;6.952;2022-10-15T06:36:39;13.80;99.90
14755;DHT22;7469;50.906;6.952;2022-10-15T06:39:07;13.80;99.90
14755;DHT22;7469;50.906;6.952;2022-10-15T06:41:35;13.80;99.90
14755;DHT22;7469;50.906;6.952;2022-10-15T06:44:03;13.80;99.90
14755;DHT22;7469;50.906;6.952;2022-10-15T06:46:31;13.80;99.90
14755;DHT22;7469;50.906;6.952;2022-10-15T06:48:59;13.90;99.90
14755;DHT22;7469;50.906;6.952;2022-10-15T06:51:28;14.00;99.90
14755;DHT22;7469;50.906;6.952;2022-10-15T06:53:56;14.00;99.90
14755;DHT22;7469;50.906;6.952;2022-10-15T06:56:24;14.10;99.90
14755;DHT22;7469;50.906;6.952;2022-10-15T06:58:52;14.10;99.90
14755;DHT22;7469;50.906;6.952;2022-10-15T07:01:20;14.20;99.90
14755;DHT22;7469;50.906;6.952;2022-10-15T07:03:48;14.30;99.90
14755;DHT22;7469;50.906;6.952;2022-10-15T07:06:17;14.30;99.90
14755;DHT22;7469;50.906;6.952;2022-10-15T07:08:46;14.40;99.90
14755;DHT22;7469;50.906;6.952;2022-10-15T07:11:14;14.50;99.90
14755;DHT22;7469;50.906;6.952;2022-10-15T07:13:42;14.60;99.90
14755;DHT22;7469;50.906;6.952;2022-10-15T07:16:11;14.60;99.90
14755;DHT22;7469;50.906;6.952;2022-10-15T07:18:39;14.70;99.90
14755;DHT22;7469;50.906;6.952;2022-10-15T07:21:08;14.70;99.90
14755;DHT22;7469;50.906;6.952;2022-10-15T07:23:41;14.80;99.90
14755;DHT22;7469;50.906;6.952;2022-10-15T07:26:11;14.90;99.90
14755;DHT22;7469;50.906;6.952;2022-10-15T07:28:39;14.90;99.90
14755;DHT22;7469;50.906;6.952;2022-10-15T07:31:07;15.00;99.90
14755;DHT22;7469;50.906;6.952;2022-10-15T07:33:35;15.00;99.90
14755;DHT22;7469;50.906;6.952;2022-10-15T07:36:04;15.10;99.90
14755;DHT22;7469;50.906;6.952;2022-10-15T07:38:34;15.10;99.90
14755;DHT22;7469;50.906;6.952;2022-10-15T07:41:03;15.20;99.90
14755;DHT22;7469;50.906;6.952;2022-10-15T07:43:33;15.40;99.90
14755;DHT22;7469;50.906;6.952;2022-10-15T07:46:01;15.50;99.90
14755;DHT22;7469;50.906;6.952;2022-10-15T07:48:30;15.60;99.90
14755;DHT22;7469;50.906;6.952;2022-10-15T07:51:00;15.80;99.90
14755;DHT22;7469;50.906;6.952;2022-10-15T07:53:30;15.90;99.90
14755;DHT22;7469;50.906;6.952;2022-10-15T07:55:59;16.00;99.90
14755;DHT22;7469;50.906;6.952;2022-10-15T07:58:27;16.10;99.90
14755;DHT22;7469;50.906;6.952;2022-10-15T08:01:00;16.10;99.90
14755;DHT22;7469;50.906;6.952;2022-10-15T08:03:28;16.10;99.90
14755;DHT22;7469;50.906;6.952;2022-10-15T08:05:59;16.10;99.90
14755;DHT22;7469;50.906;6.952;2022-10-15T08:08:27;16.20;99.90
14755;DHT22;7469;50.906;6.952;2022-10-15T08:10:56;16.10;99.90
14755;DHT22;7469;50.906;6.952;2022-10-15T08:13:24;16.10;99.90
14755;DHT22;7469;50.906;6.952;2022-10-15T08:15:52;16.10;99.90
14755;DHT22;7469;50.906;6.952;2022-10-15T08:18:27;16.10;99.90
14755;DHT22;7469;50.906;6.952;2022-10-15T08:20:58;16.10;99.90
14755;DHT22;7469;50.906;6.952;2022-10-15T08:23:26;16.20;99.90
14755;DHT22;7469;50.906;6.952;2022-10-15T08:25:56;16.30;99.90
14755;DHT22;7469;50.906;6.952;2022-10-15T08:28:24;16.40;99.90
14755;DHT22;7469;50.906;6.952;2022-10-15T08:30:52;16.50;99.90
14755;DHT22;7469;50.906;6.952;2022-10-15T08:33:21;16.60;99.90
14755;DHT22;7469;50.906;6.952;2022-10-15T08:35:50;16.60;99.90
14755;DHT22;7469;50.906;6.952;2022-10-15T08:38:19;16.60;99.90
14755;DHT22;7469;50.906;6.952;2022-10-15T08:40:48;16.70;99.90
14755;DHT22;7469;50.906;6.952;2022-10-15T08:43:21;16.70;99.90
14755;DHT22;7469;50.906;6.952;2022-10-15T08:45:52;16.80;99.90
14755;DHT22;7469;50.906;6.952;2022-10-15T08:48:27;16.80;99.90
14755;DHT22;7469;50.906;6.952;2022-10-15T08:51:00;16.90;99.90
14755;DHT22;7469;50.906;6.952;2022-10-15T08:53:39;16.90;99.90
14755;DHT22;7469;50.906;6.952;2022-10-15T08:56:14;16.80;99.90
14755;DHT22;7469;50.906;6.952;2022-10-15T08:58:50;16.90;99.90
14755;DHT22;7469;50.906;6.952;2022-10-15T09:01:23;16.90;99.90
14755;DHT22;7469;50.906;6.952;2022-10-15T09:04:00;16.90;99.90
14755;DHT22;7469;50.906;6.952;2022-10-15T09:06:34;17.00;99.90
14755;DHT22;7469;50.906;6.952;2022-10-15T09:09:09;17.10;99.90
14755;DHT22;7469;50.906;6.952;2022-10-15T09:11:49;17.10;99.90
14755;DHT22;7469;50.906;6.952;2022-10-15T09:14:24;17.10;99.90
14755;DHT22;7469;50.906;6.952;2022-10-15T09:16:53;17.10;99.90
14755;DHT22;7469;50.906;6.952;2022-10-15T09:19:23;17.10;99.90
14755;DHT22;7469;50.906;6.952;2022-10-15T09:21:54;17.20;99.90
14755;DHT22;7469;50.906;6.952;2022-10-15T09:24:24;17.20;99.90
14755;DHT22;7469;50.906;6.952;2022-10-15T09:26:59;17.20;99.90
14755;DHT22;7469;50.906;6.952;2022-10-15T09:29:34;17.30;99.90
14755;DHT22;7469;50.906;6.952;2022-10-15T09:32:11;17.30;99.90
14755;DHT22;7469;50.906;6.952;2022-10-15T09:34:43;17.40;99.90
14755;DHT22;7469;50.906;6.952;2022-10-15T09:37:18;17.50;99.90
14755;DHT22;7469;50.906;6.952;2022-10-15T09:39:59;17.50;99.90
14755;DHT22;7469;50.906;6.952;2022-10-15T09:42:32;17.60;99.90
14755;DHT22;7469;50.906;6.952;2022-10-15T09:45:04;17.70;99.90
14755;DHT22;7469;50.906;6.952;2022-10-15T09:47:34;17.80;99.90
14755;DHT22;7469;50.906;6.952;2022-10-15T09:50:03;17.80;99.90
14755;DHT22;7469;50.906;6.952;2022-10-15T09:52:47;17.80;99.90
14755;DHT22;7469;50.906;6.952;2022-10-15T09:55:33;17.90;99.90
14755;DHT22;7469;50.906;6.952;2022-10-15T09:58:05;17.90;99.90
14755;DHT22;7469;50.906;6.952;2022-10-15T10:01:01;17.90;99.90
14755;DHT22;7469;50.906;6.952;2022-10-15T10:03:32;18.00;99.90
14755;DHT22;7469;50.906;6.952;2022-10-15T10:06:03;17.90;99.90
14755;DHT22;7469;50.906;6.952;2022-10-15T10:08:37;17.90;99.90
14755;DHT22;7469;50.906;6.952;2022-10-15T10:11:08;17.90;99.90
14755;DHT22;7469;50.906;6.952;2022-10-15T10:13:39;18.10;99.90
14755;DHT22;7469;50.906;6.952;2022-10-15T10:16:13;18.30;99.90
14755;DHT22;7469;50.906;6.952;2022-10-15T10:18:42;18.50;99.90
14755;DHT22;7469;50.906;6.952;2022-10-15T10:21:22;19.00;99.90
14755;DHT22;7469;50.906;6.952;2022-10-15T10:23:53;19.40;99.90
14755;DHT22;7469;50.906;6.952;2022-10-15T10:26:21;19.90;99.90
14755;DHT22;7469;50.906;6.952;2022-10-15T10:28:51;20.30;99.90
14755;DHT22;7469;50.906;6.952;2022-10-15T10:31:28;20.80;99.90
14755;DHT22;7469;50.906;6.952;2022-10-15T10:33:59;21.00;99.90
14755;DHT22;7469;50.906;6.952;2022-10-15T10:36:29;20.80;99.90
14755;DHT22;7469;50.906;6.952;2022-10-15T10:39:03;20.60;99.90
14755;DHT22;7469;50.906;6.952;2022-10-15T10:41:48;20.50;99.90
14755;DHT22;7469;50.906;6.952;2022-10-15T10:44:20;20.20;99.90
14755;DHT22;7469;50.906;6.952;2022-10-15T10:47:09;20.10;99.90
14755;DHT22;7469;50.906;6.952;2022-10-15T10:49:39;19.90;99.90
14755;DHT22;7469;50.906;6.952;2022-10-15T10:52:23;19.80;99.90
14755;DHT22;7469;50.906;6.952;2022-10-15T10:54:58;19.70;99.90
14755;DHT22;7469;50.906;6.952;2022-10-15T10:57:38;19.60;99.90
14755;DHT22;7469;50.906;6.952;2022-10-15T11:00:14;19.60;99.90
14755;DHT22;7469;50.906;6.952;2022-10-15T11:02:43;19.50;99.90
14755;DHT22;7469;50.906;6.952;2022-10-15T11:05:11;19.50;99.90
14755;DHT22;7469;50.906;6.952;2022-10-15T11:07:47;19.50;99.90
14755;DHT22;7469;50.906;6.952;2022-10-15T11:10:23;19.60;99.90
14755;DHT22;7469;50.906;6.952;2022-10-15T11:13:06;19.70;99.90
14755;DHT22;7469;50.906;6.952;2022-10-15T11:15:47;19.90;99.90
14755;DHT22;7469;50.906;6.952;2022-10-15T11:18:35;20.10;99.90
14755;DHT22;7469;50.906;6.952;2022-10-15T11:21:14;20.20;99.90
14755;DHT22;7469;50.906;6.952;2022-10-15T11:23:57;20.30;99.90
14755;DHT22;7469;50.906;6.952;2022-10-15T11:26:39;20.30;99.90
14755;DHT22;7469;50.906;6.952;2022-10-15T11:29:32;20.40;99.90
14755;DHT22;7469;50.906;6.952;2022-10-15T11:32:12;20.40;99.90
14755;DHT22;7469;50.906;6.952;2022-10-15T11:35:03;20.50;99.90
14755;DHT22;7469;50.906;6.952;2022-10-15T11:37:41;20.60;99.90
14755;DHT22;7469;50.906;6.952;2022-10-15T11:40:17;20.60;99.90
14755;DHT22;7469;50.906;6.952;2022-10-15T11:42:53;20.70;99.90
14755;DHT22;7469;50.906;6.952;2022-10-15T11:45:42;20.70;99.90
14755;DHT22;7469;50.906;6.952;2022-10-15T11:48:20;20.70;99.90
14755;DHT22;7469;50.906;6.952;2022-10-15T11:50:56;20.60;99.90
14755;DHT22;7469;50.906;6.952;2022-10-15T11:56:15;20.60;99.90
14755;DHT22;7469;50.906;6.952;2022-10-15T11:58:48;20.60;99.90
14755;DHT22;7469;50.906;6.952;2022-10-15T12:01:21;20.60;99.90
14755;DHT22;7469;50.906;6.952;2022-10-15T12:03:54;20.60;99.90
14755;DHT22;7469;50.906;6.952;2022-10-15T12:06:26;20.60;99.90
14755;DHT22;7469;50.906;6.952;2022-10-15T12:08:57;20.50;99.90
14755;DHT22;7469;50.906;6.952;2022-10-15T12:11:38;20.50;99.90
14755;DHT22;7469;50.906;6.952;2022-10-15T12:14:19;20.50;99.90
14755;DHT22;7469;50.906;6.952;2022-10-15T12:16:54;20.50;99.90
14755;DHT22;7469;50.906;6.952;2022-10-15T12:19:28;20.50;99.90
14755;DHT22;7469;50.906;6.952;2022-10-15T12:22:06;20.60;99.90
14755;DHT22;7469;50.906;6.952;2022-10-15T12:24:51;20.70;99.90
14755;DHT22;7469;50.906;6.952;2022-10-15T12:27:26;20.80;99.90
14755;DHT22;7469;50.906;6.952;2022-10-15T12:30:22;20.90;99.90
14755;DHT22;7469;50.906;6.952;2022-10-15T12:32:51;21.00;99.90
14755;DHT22;7469;50.906;6.952;2022-10-15T12:35:34;21.10;99.90
14755;DHT22;7469;50.906;6.952;2022-10-15T12:38:20;21.20;99.90
14755;DHT22;7469;50.906;6.952;2022-10-15T12:41:02;21.10;99.90
14755;DHT22;7469;50.906;6.952;2022-10-15T12:43:32;21.20;99.90
14755;DHT22;7469;50.906;6.952;2022-10-15T12:46:05;21.10;99.90
14755;DHT22;7469;50.906;6.952;2022-10-15T12:48:37;21.20;99.90
14755;DHT22;7469;50.906;6.952;2022-10-15T12:51:38;21.30;99.90
14755;DHT22;7469;50.906;6.952;2022-10-15T12:54:35;21.40;99.90
14755;DHT22;7469;50.906;6.952;2022-10-15T13:00:33;21.70;99.90
14755;DHT22;7469;50.906;6.952;2022-10-15T13:03:13;21.70;99.90
14755;DHT22;7469;50.906;6.952;2022-10-15T13:05:42;21.80;99.90
14755;DHT22;7469;50.906;6.952;2022-10-15T13:08:19;21.90;99.90
14755;DHT22;7469;50.906;6.952;2022-10-15T13:10:51;22.10;99.90
14755;DHT22;7469;50.906;6.952;2022-10-15T13:13:23;22.30;99.90
14755;DHT22;7469;50.906;6.952;2022-10-15T13:15:55;22.40;99.90
14755;DHT22;7469;50.906;6.952;2022-10-15T13:18:28;22.40;99.90
14755;DHT22;7469;50.906;6.952;2022-10-15T13:20:56;22.40;99.90
14755;DHT22;7469;50.906;6.952;2022-10-15T13:23:26;22.40;99.90
14755;DHT22;7469;50.906;6.952;2022-10-15T13:26:11;22.30;99.90
14755;DHT22;7469;50.906;6.952;2022-10-15T13:28:40;22.30;99.90
14755;DHT22;7469;50.906;6.952;2022-10-15T13:31:15;22.20;99.90
14755;DHT22;7469;50.906;6.952;2022-10-15T13:33:49;22.20;99.90
14755;DHT22;7469;50.906;6.952;2022-10-15T13:36:21;22.30;99.90
14755;DHT22;7469;50.906;6.952;2022-10-15T13:38:56;22.30;99.90
14755;DHT22;7469;50.906;6.952;2022-10-15T13:41:27;22.40;99.90
14755;DHT22;7469;50.906;6.952;2022-10-15T13:43:55;22.40;99.90
14755;DHT22;7469;50.906;6.952;2022-10-15T13:46:28;22.40;99.90
14755;DHT22;7469;50.906;6.952;2022-10-15T13:48:59;22.30;99.90
14755;DHT22;7469;50.906;6.952;2022-10-15T13:51:32;22.20;99.90
14755;DHT22;7469;50.906;6.952;2022-10-15T13:54:01;22.20;99.90
14755;DHT22;7469;50.906;6.952;2022-10-15T13:56:34;22.10;99.90
14755;DHT22;7469;50.906;6.952;2022-10-15T13:59:02;22.00;99.90
14755;DHT22;7469;50.906;6.952;2022-10-15T14:01:31;21.90;99.90
14755;DHT22;7469;50.906;6.952;2022-10-15T14:04:02;21.80;99.90
14755;DHT22;7469;50.906;6.952;2022-10-15T14:06:31;21.70;99.90
14755;DHT22;7469;50.906;6.952;2022-10-15T14:09:01;21.60;99.90
14755;DHT22;7469;50.906;6.952;2022-10-15T14:11:37;21.50;99.90
14755;DHT22;7469;50.906;6.952;2022-10-15T14:14:27;21.50;99.90
14755;DHT22;7469;50.906;6.952;2022-10-15T14:16:56;21.50;99.90
14755;DHT22;7469;50.906;6.952;2022-10-15T14:19:27;21.60;99.90
14755;DHT22;7469;50.906;6.952;2022-10-15T14:21:57;21.80;99.90
14755;DHT22;7469;50.906;6.952;2022-10-15T14:24:30;21.80;99.90
14755;DHT22;7469;50.906;6.952;2022-10-15T14:27:04;21.80;99.90
14755;DHT22;7469;50.906;6.952;2022-10-15T14:29:37;21.80;99.90
14755;DHT22;7469;50.906;6.952;2022-10-15T14:32:21;21.80;99.90
14755;DHT22;7469;50.906;6.952;2022-10-15T14:34:52;21.80;99.90
14755;DHT22;7469;50.906;6.952;2022-10-15T14:37:28;21.80;99.90
14755;DHT22;7469;50.906;6.952;2022-10-15T14:40:03;21.80;99.90
14755;DHT22;7469;50.906;6.952;2022-10-15T14:42:32;21.70;99.90
14755;DHT22;7469;50.906;6.952;2022-10-15T14:45:10;21.70;99.90
14755;DHT22;7469;50.906;6.952;2022-10-15T14:47:39;21.60;99.90
14755;DHT22;7469;50.906;6.952;2022-10-15T14:50:10;21.60;99.90
14755;DHT22;7469;50.906;6.952;2022-10-15T14:52:43;21.50;99.90
14755;DHT22;7469;50.906;6.952;2022-10-15T14:55:16;21.50;99.90
14755;DHT22;7469;50.906;6.952;2022-10-15T14:57:46;21.50;99.90
14755;DHT22;7469;50.906;6.952;2022-10-15T15:00:22;21.50;99.90
14755;DHT22;7469;50.906;6.952;2022-10-15T15:02:52;21.50;99.90
14755;DHT22;7469;50.906;6.952;2022-10-15T15:05:23;21.50;99.90
14755;DHT22;7469;50.906;6.952;2022-10-15T15:07:52;21.50;99.90
14755;DHT22;7469;50.906;6.952;2022-10-15T15:10:22;21.50;99.90
14755;DHT22;7469;50.906;6.952;2022-10-15T15:12:52;21.40;99.90
14755;DHT22;7469;50.906;6.952;2022-10-15T15:15:22;21.40;99.90
14755;DHT22;7469;50.906;6.952;2022-10-15T15:17:51;21.30;99.90
14755;DHT22;7469;50.906;6.952;2022-10-15T15:20:19;21.20;99.90
14755;DHT22;7469;50.906;6.952;2022-10-15T15:22:50;21.10;99.90
14755;DHT22;7469;50.906;6.952;2022-10-15T15:25:23;21.00;99.90
14755;DHT22;7469;50.906;6.952;2022-10-15T15:27:53;20.80;99.90
14755;DHT22;7469;50.906;6.952;2022-10-15T15:30:24;20.60;99.90
14755;DHT22;7469;50.906;6.952;2022-10-15T15:32:53;20.40;99.90
14755;DHT22;7469;50.906;6.952;2022-10-15T15:35:25;20.20;99.90
14755;DHT22;7469;50.906;6.952;2022-10-15T15:37:56;20.10;99.90
14755;DHT22;7469;50.906;6.952;2022-10-15T15:40:24;19.90;99.90
14755;DHT22;7469;50.906;6.952;2022-10-15T15:42:52;19.70;99.90
14755;DHT22;7469;50.906;6.952;2022-10-15T15:45:23;19.60;99.90
14755;DHT22;7469;50.906;6.952;2022-10-15T15:47:52;19.40;99.90
14755;DHT22;7469;50.906;6.952;2022-10-15T15:50:21;19.30;99.90
14755;DHT22;7469;50.906;6.952;2022-10-15T15:52:49;19.10;99.90
14755;DHT22;7469;50.906;6.952;2022-10-15T15:55:19;19.00;99.90
14755;DHT22;7469;50.906;6.952;2022-10-15T15:57:47;18.90;99.90
14755;DHT22;7469;50.906;6.952;2022-10-15T16:00:15;18.80;99.90
14755;DHT22;7469;50.906;6.952;2022-10-15T16:02:43;18.70;99.90
14755;DHT22;7469;50.906;6.952;2022-10-15T16:05:12;18.60;99.90
14755;DHT22;7469;50.906;6.952;2022-10-15T16:07:41;18.40;99.90
14755;DHT22;7469;50.906;6.952;2022-10-15T16:10:09;18.40;99.90
14755;DHT22;7469;50.906;6.952;2022-10-15T16:12:40;18.30;99.90
14755;DHT22;7469;50.906;6.952;2022-10-15T16:15:09;18.30;99.90
14755;DHT22;7469;50.906;6.952;2022-10-15T16:17:41;18.20;99.90
14755;DHT22;7469;50.906;6.952;2022-10-15T16:20:10;18.10;99.90
14755;DHT22;7469;50.906;6.952;2022-10-15T16:22:38;18.10;99.90